Terminal Aerodrome Forecast
Issued by NWS

Home | Current Version | Previous Version | Text Only | Print | Product List | Glossary On
Versions: 1 2 3 4 5 6 7 8 9 10 11 12
000
FTUS43 KMQT 011133
TAFIWD
TAF
KIWD 011133Z 0112/0212 21006KT P6SM VCSH BKN080
     FM011500 23007KT P6SM SCT035 BKN090
     FM012000 28005KT P6SM SCT080
     FM020000 00000KT P6SM FEW120
     FM020600 00000KT 5SM BR SCT150
     FM021000 00000KT 2SM BR SCT150
      AMD LTD TO CLD VIS AND WIND=

USA.gov is the U.S. government's official web portal to all federal, state and local government web resources and services.